Time,TemperatureF,DewpointF,PressureIn,WindDirection,WindDirectionDegrees,WindSpeedMPH,WindSpeedGustMPH,Humidity,HourlyPrecipIn,Conditions,Clouds,dailyrainin,SolarRadiationWatts/m^2,SoftwareType,DateUTC
2013-01-26 00:06:00,46.5,37.2,30.17,ESE,116,0.0,0.0,70,0.00,,,0.00,0,Wunderground v.1.15,2013-01-26 05:06:00,
2013-01-26 00:07:00,46.5,37.2,30.17,ESE,116,0.0,0.0,70,0.00,,,0.00,0,Wunderground v.1.15,2013-01-26 05:07:00,
2013-01-26 00:08:00,46.5,37.2,30.17,ESE,116,1.0,1.0,70,0.00,,,0.00,0,Wunderground v.1.15,2013-01-26 05:08:00,
2013-01-26 00:12:00,46.5,37.2,30.17,ESE,116,0.0,1.0,70,0.00,,,0.00,0,Wunderground v.1.15,2013-01-26 05:12:00,
2013-01-26 00:17:00,46.5,37.2,30.16,ESE,116,1.0,1.0,70,0.00,,,0.00,0,Wunderground v.1.15,2013-01-26 05:17:00,
2013-01-26 00:23:00,46.6,37.7,30.16,ESE,116,0.0,1.0,71,0.00,,,0.00,0,Wunderground v.1.15,2013-01-26 05:23:00,
2013-01-26 00:29:00,46.7,37.8,30.16,ESE,116,0.0,0.0,71,0.00,,,0.00,0,Wunderground v.1.15,2013-01-26 05:29:00,
2013-01-26 00:35:00,46.7,37.8,30.16,ESE,116,0.0,0.0,71,0.00,,,0.00,0,Wunderground v.1.15,2013-01-26 05:35:00,
2013-01-26 00:40:00,46.7,37.8,30.17,ESE,116,0.0,0.0,71,0.00,,,0.00,0,Wunderground v.1.15,2013-01-26 05:40:00,
2013-01-26 00:46:00,46.6,37.7,30.16,ESE,116,0.0,0.0,71,0.00,,,0.00,0,Wunderground v.1.15,2013-01-26 05:46:00,
2013-01-26 00:51:00,46.5,38.0,30.16,ESE,116,0.0,0.0,72,0.00,,,0.00,0,Wunderground v.1.15,2013-01-26 05:51:00,
2013-01-26 00:56:00,46.4,37.9,30.16,ESE,116,0.0,0.0,72,0.00,,,0.00,0,Wunderground v.1.15,2013-01-26 05:56:00,
2013-01-26 01:06:00,46.1,37.9,30.16,ESE,116,0.0,0.0,73,0.00,,,0.00,0,Wunderground v.1.15,2013-01-26 06:06:00,
2013-01-26 01:12:00,46.0,37.8,30.16,ESE,116,0.0,2.0,73,0.00,,,0.00,0,Wunderground v.1.15,2013-01-26 06:12:00,
2013-01-26 01:18:00,45.9,37.7,30.17,ESE,116,0.0,1.0,73,0.00,,,0.00,0,Wunderground v.1.15,2013-01-26 06:18:00,
2013-01-26 01:23:00,45.8,38.0,30.17,ESE,115,0.0,2.0,74,0.00,,,0.00,0,Wunderground v.1.15,2013-01-26 06:23:00,
2013-01-26 01:29:00,45.5,37.3,30.17,ESE,115,0.0,1.0,73,0.00,,,0.00,0,Wunderground v.1.15,2013-01-26 06:29:00,
2013-01-26 01:35:00,45.3,37.2,30.17,ESE,115,1.0,1.0,73,0.00,,,0.00,0,Wunderground v.1.15,2013-01-26 06:35:00,
2013-01-26 01:40:00,45.1,36.6,30.17,ESE,115,0.0,1.0,72,0.00,,,0.00,0,Wunderground v.1.15,2013-01-26 06:40:00,
2013-01-26 01:45:00,44.9,36.4,30.16,ESE,115,1.0,1.0,72,0.00,,,0.00,0,Wunderground v.1.15,2013-01-26 06:45:00,
2013-01-26 01:50:00,44.8,36.7,30.16,ESE,115,0.0,0.0,73,0.00,,,0.00,0,Wunderground v.1.15,2013-01-26 06:50:00,
2013-01-26 01:56:00,44.6,36.5,30.16,ESE,115,0.0,0.0,73,0.00,,,0.00,0,Wunderground v.1.15,2013-01-26 06:56:00,
2013-01-26 02:06:00,44.2,36.1,30.16,ESE,115,0.0,0.0,73,0.00,,,0.00,0,Wunderground v.1.15,2013-01-26 07:06:00,
2013-01-26 02:11:00,44.1,36.3,30.16,ESE,115,0.0,1.0,74,0.00,,,0.00,0,Wunderground v.1.15,2013-01-26 07:11:00,
2013-01-26 02:16:00,44.0,36.2,30.16,ESE,115,0.0,0.0,74,0.00,,,0.00,0,Wunderground v.1.15,2013-01-26 07:16:00,
2013-01-26 02:21:00,44.0,36.6,30.16,ESE,115,0.0,0.0,75,0.00,,,0.00,0,Wunderground v.1.15,2013-01-26 07:21:00,
2013-01-26 02:26:00,43.9,36.5,30.16,ESE,115,0.0,0.0,75,0.00,,,0.00,0,Wunderground v.1.15,2013-01-26 07:26:00,
2013-01-26 02:31:00,43.7,36.3,30.16,ESE,115,0.0,0.0,75,0.00,,,0.00,0,Wunderground v.1.15,2013-01-26 07:31:00,
2013-01-26 02:36:00,43.6,36.5,30.16,ESE,115,0.0,0.0,76,0.00,,,0.00,0,Wunderground v.1.15,2013-01-26 07:36:00,
2013-01-26 02:41:00,43.4,36.3,30.16,ESE,115,0.0,0.0,76,0.00,,,0.00,0,Wunderground v.1.15,2013-01-26 07:41:00,
2013-01-26 02:46:00,43.3,36.2,30.15,SE,125,0.0,0.0,76,0.00,,,0.00,0,Wunderground v.1.15,2013-01-26 07:46:00,
2013-01-26 02:51:00,43.2,36.5,30.15,SE,125,0.0,1.0,77,0.00,,,0.00,0,Wunderground v.1.15,2013-01-26 07:51:00,
2013-01-26 02:56:00,43.1,36.0,30.15,SE,125,0.0,1.0,76,0.00,,,0.00,0,Wunderground v.1.15,2013-01-26 07:56:00,
2013-01-26 03:06:00,42.9,35.9,30.15,SE,125,0.0,0.0,76,0.00,,,0.00,0,Wunderground v.1.15,2013-01-26 08:06:00,
2013-01-26 03:11:00,42.8,35.8,30.15,SE,125,0.0,0.0,76,0.00,,,0.00,0,Wunderground v.1.15,2013-01-26 08:11:00,
2013-01-26 03:16:00,42.6,35.6,30.15,SE,125,0.0,0.0,76,0.00,,,0.00,0,Wunderground v.1.15,2013-01-26 08:16:00,
2013-01-26 03:21:00,42.5,35.5,30.15,SE,125,0.0,0.0,76,0.00,,,0.00,0,Wunderground v.1.15,2013-01-26 08:21:00,
2013-01-26 03:26:00,42.4,35.7,30.15,SE,125,0.0,0.0,77,0.00,,,0.00,0,Wunderground v.1.15,2013-01-26 08:26:00,
2013-01-26 03:31:00,42.3,35.9,30.15,SE,125,0.0,0.0,78,0.00,,,0.00,0,Wunderground v.1.15,2013-01-26 08:31:00,
2013-01-26 03:36:00,42.2,35.8,30.15,SE,125,0.0,0.0,78,0.00,,,0.00,0,Wunderground v.1.15,2013-01-26 08:36:00,
2013-01-26 03:41:00,42.2,36.2,30.15,SE,125,0.0,0.0,79,0.00,,,0.00,0,Wunderground v.1.15,2013-01-26 08:41:00,
2013-01-26 03:46:00,42.0,36.0,30.15,SE,125,0.0,0.0,79,0.00,,,0.00,0,Wunderground v.1.15,2013-01-26 08:46:00,
2013-01-26 03:51:00,41.9,35.9,30.14,SE,125,0.0,0.0,79,0.00,,,0.00,0,Wunderground v.1.15,2013-01-26 08:51:00,
2013-01-26 03:56:00,41.8,35.4,30.15,SE,125,0.0,0.0,78,0.00,,,0.00,0,Wunderground v.1.15,2013-01-26 08:56:00,
2013-01-26 04:07:00,41.5,34.5,30.14,SE,125,0.0,0.0,76,0.00,,,0.00,0,Wunderground v.1.15,2013-01-26 09:07:00,
2013-01-26 04:12:00,41.4,34.7,30.14,SE,125,0.0,0.0,77,0.00,,,0.00,0,Wunderground v.1.15,2013-01-26 09:12:00,
2013-01-26 04:17:00,41.3,34.6,30.14,SE,125,0.0,0.0,77,0.00,,,0.00,0,Wunderground v.1.15,2013-01-26 09:17:00,
2013-01-26 04:22:00,41.2,34.9,30.14,SE,125,0.0,0.0,78,0.00,,,0.00,0,Wunderground v.1.15,2013-01-26 09:22:00,
2013-01-26 04:27:00,41.1,34.8,30.14,SE,125,0.0,0.0,78,0.00,,,0.00,0,Wunderground v.1.15,2013-01-26 09:27:00,
2013-01-26 04:32:00,41.0,34.7,30.15,SE,125,0.0,1.0,78,0.00,,,0.00,0,Wunderground v.1.15,2013-01-26 09:32:00,
2013-01-26 04:37:00,41.0,34.7,30.15,SE,125,0.0,1.0,78,0.00,,,0.00,0,Wunderground v.1.15,2013-01-26 09:37:00,
2013-01-26 04:42:00,40.9,34.6,30.15,SE,125,0.0,0.0,78,0.00,,,0.00,0,Wunderground v.1.15,2013-01-26 09:42:00,
2013-01-26 04:47:00,40.9,34.9,30.15,SE,125,0.0,1.0,79,0.00,,,0.00,0,Wunderground v.1.15,2013-01-26 09:47:00,
2013-01-26 04:52:00,40.8,34.8,30.15,SE,125,0.0,0.0,79,0.00,,,0.00,0,Wunderground v.1.15,2013-01-26 09:52:00,
2013-01-26 04:57:00,40.7,34.7,30.15,SE,125,0.0,1.0,79,0.00,,,0.00,0,Wunderground v.1.15,2013-01-26 09:57:00,
2013-01-26 05:06:00,40.5,34.8,30.15,SE,125,0.0,0.0,80,0.00,,,0.00,0,Wunderground v.1.15,2013-01-26 10:06:00,
2013-01-26 05:11:00,40.4,34.7,30.15,SE,125,0.0,1.0,80,0.00,,,0.00,0,Wunderground v.1.15,2013-01-26 10:11:00,
2013-01-26 05:16:00,40.3,34.6,30.15,SE,125,0.0,1.0,80,0.00,,,0.00,0,Wunderground v.1.15,2013-01-26 10:16:00,
2013-01-26 05:21:00,40.2,34.2,30.15,SE,125,0.0,0.0,79,0.00,,,0.00,0,Wunderground v.1.15,2013-01-26 10:21:00,
2013-01-26 05:26:00,40.1,34.1,30.15,SE,125,0.0,0.0,79,0.00,,,0.00,0,Wunderground v.1.15,2013-01-26 10:26:00,
2013-01-26 05:31:00,40.0,34.0,30.15,SE,125,0.0,0.0,79,0.00,,,0.00,0,Wunderground v.1.15,2013-01-26 10:31:00,
2013-01-26 05:36:00,39.9,33.9,30.15,SE,125,0.0,0.0,79,0.00,,,0.00,0,Wunderground v.1.15,2013-01-26 10:36:00,
2013-01-26 05:41:00,39.8,33.8,30.15,SE,125,0.0,0.0,79,0.00,,,0.00,0,Wunderground v.1.15,2013-01-26 10:41:00,
2013-01-26 05:46:00,39.8,34.1,30.15,SE,125,0.0,0.0,80,0.00,,,0.00,0,Wunderground v.1.15,2013-01-26 10:46:00,
2013-01-26 05:51:00,40.0,34.3,30.15,SE,125,0.0,0.0,80,0.00,,,0.00,0,Wunderground v.1.15,2013-01-26 10:51:00,
2013-01-26 05:56:00,40.1,34.4,30.15,SE,125,0.0,0.0,80,0.00,,,0.00,0,Wunderground v.1.15,2013-01-26 10:56:00,
2013-01-26 06:07:00,40.6,34.9,30.15,SE,125,0.0,0.0,80,0.00,,,0.00,0,Wunderground v.1.15,2013-01-26 11:07:00,
2013-01-26 06:12:00,40.8,35.1,30.15,SE,125,0.0,1.0,80,0.00,,,0.00,0,Wunderground v.1.15,2013-01-26 11:12:00,
2013-01-26 06:17:00,40.9,35.2,30.16,SE,125,0.0,1.0,80,0.00,,,0.00,0,Wunderground v.1.15,2013-01-26 11:17:00,
2013-01-26 06:22:00,41.0,35.0,30.16,SE,125,0.0,0.0,79,0.00,,,0.00,0,Wunderground v.1.15,2013-01-26 11:22:00,
2013-01-26 06:27:00,41.0,34.7,30.16,SE,125,0.0,1.0,78,0.00,,,0.00,0,Wunderground v.1.15,2013-01-26 11:27:00,
2013-01-26 06:32:00,41.0,34.3,30.16,SE,125,0.0,1.0,77,0.00,,,0.00,0,Wunderground v.1.15,2013-01-26 11:32:00,
2013-01-26 06:37:00,40.9,34.2,30.16,SE,125,0.0,1.0,77,0.00,,,0.00,0,Wunderground v.1.15,2013-01-26 11:37:00,
2013-01-26 06:42:00,40.8,34.1,30.16,SE,125,0.0,0.0,77,0.00,,,0.00,0,Wunderground v.1.15,2013-01-26 11:42:00,
2013-01-26 06:47:00,40.7,34.0,30.16,SE,125,0.0,0.0,77,0.00,,,0.00,0,Wunderground v.1.15,2013-01-26 11:47:00,
2013-01-26 06:52:00,40.7,34.4,30.16,SE,125,0.0,1.0,78,0.00,,,0.00,0,Wunderground v.1.15,2013-01-26 11:52:00,
2013-01-26 06:57:00,40.6,34.3,30.16,SE,125,0.0,1.0,78,0.00,,,0.00,0,Wunderground v.1.15,2013-01-26 11:57:00,
2013-01-26 07:07:00,40.9,34.9,30.16,SE,125,0.0,0.0,79,0.00,,,0.00,0,Wunderground v.1.15,2013-01-26 12:07:00,
2013-01-26 07:12:00,41.1,35.1,30.16,SE,125,0.0,1.0,79,0.00,,,0.00,0,Wunderground v.1.15,2013-01-26 12:12:00,
2013-01-26 07:17:00,41.5,35.2,30.17,SE,125,1.0,2.0,78,0.00,,,0.00,5,Wunderground v.1.15,2013-01-26 12:17:00,
2013-01-26 07:22:00,41.9,35.2,30.17,SE,125,0.0,2.0,77,0.00,,,0.00,7,Wunderground v.1.15,2013-01-26 12:22:00,
2013-01-26 07:27:00,42.2,35.2,30.17,SE,125,0.0,2.0,76,0.00,,,0.00,11,Wunderground v.1.15,2013-01-26 12:27:00,
2013-01-26 07:32:00,42.5,35.1,30.17,SE,125,1.0,1.0,75,0.00,,,0.00,18,Wunderground v.1.15,2013-01-26 12:32:00,
2013-01-26 07:37:00,42.8,35.4,30.18,SE,125,1.0,2.0,75,0.00,,,0.00,30,Wunderground v.1.15,2013-01-26 12:37:00,
2013-01-26 07:42:00,42.9,35.2,30.18,ESE,120,1.0,1.0,74,0.00,,,0.00,37,Wunderground v.1.15,2013-01-26 12:42:00,
2013-01-26 07:47:00,43.0,35.6,30.18,ESE,120,1.0,2.0,75,0.00,,,0.00,44,Wunderground v.1.15,2013-01-26 12:47:00,
2013-01-26 07:52:00,43.1,35.7,30.17,ESE,120,1.0,1.0,75,0.00,,,0.00,56,Wunderground v.1.15,2013-01-26 12:52:00,
2013-01-26 07:58:00,43.3,35.9,30.18,ESE,120,0.0,1.0,75,0.00,,,0.00,67,Wunderground v.1.15,2013-01-26 12:58:00,
2013-01-26 08:06:00,43.5,36.1,30.18,ESE,120,0.0,1.0,75,0.00,,,0.00,69,Wunderground v.1.15,2013-01-26 13:06:00,
2013-01-26 08:11:00,44.0,36.9,30.17,ENE,63,0.0,3.0,76,0.00,,,0.00,88,Wunderground v.1.15,2013-01-26 13:11:00,
2013-01-26 08:16:00,44.6,38.5,30.17,ENE,71,1.0,5.0,79,0.00,,,0.00,102,Wunderground v.1.15,2013-01-26 13:16:00,
2013-01-26 08:21:00,45.4,38.6,30.18,SE,136,2.0,4.0,77,0.00,,,0.00,109,Wunderground v.1.15,2013-01-26 13:21:00,
2013-01-26 08:26:00,45.8,38.0,30.19,East,101,2.0,7.0,74,0.00,,,0.00,111,Wunderground v.1.15,2013-01-26 13:26:00,
2013-01-26 08:31:00,45.8,37.3,30.19,East,88,3.0,5.0,72,0.00,,,0.00,88,Wunderground v.1.15,2013-01-26 13:31:00,
2013-01-26 08:36:00,45.7,37.5,30.20,East,101,2.0,5.0,73,0.00,,,0.00,98,Wunderground v.1.15,2013-01-26 13:36:00,
2013-01-26 08:41:00,45.3,36.8,30.20,East,101,3.0,4.0,72,0.00,,,0.00,91,Wunderground v.1.15,2013-01-26 13:41:00,
2013-01-26 08:46:00,45.1,37.0,30.20,ESE,111,1.0,4.0,73,0.00,,,0.00,98,Wunderground v.1.15,2013-01-26 13:46:00,
2013-01-26 08:52:00,45.1,36.3,30.21,East,93,3.0,5.0,71,0.00,,,0.00,98,Wunderground v.1.15,2013-01-26 13:52:00,
2013-01-26 08:57:00,44.9,35.0,30.21,East,94,3.0,7.0,68,0.00,,,0.00,97,Wunderground v.1.15,2013-01-26 13:57:00,
2013-01-26 09:06:00,44.6,33.6,30.22,East,86,1.0,2.0,65,0.00,,,0.00,121,Wunderground v.1.15,2013-01-26 14:06:00,
2013-01-26 09:11:00,44.9,33.8,30.22,ESE,117,2.0,5.0,65,0.00,,,0.00,160,Wunderground v.1.15,2013-01-26 14:11:00,
2013-01-26 09:16:00,45.1,34.0,30.22,East,99,2.0,2.0,65,0.00,,,0.00,127,Wunderground v.1.15,2013-01-26 14:16:00,
2013-01-26 09:21:00,45.3,34.2,30.22,ESE,107,1.0,5.0,65,0.00,,,0.00,132,Wunderground v.1.15,2013-01-26 14:21:00,
2013-01-26 09:26:00,45.5,34.4,30.22,East,96,1.0,2.0,65,0.00,,,0.00,125,Wunderground v.1.15,2013-01-26 14:26:00,
2013-01-26 09:31:00,45.8,35.1,30.23,East,96,0.0,2.0,66,0.00,,,0.00,141,Wunderground v.1.15,2013-01-26 14:31:00,
2013-01-26 09:36:00,46.0,34.9,30.23,SE,136,1.0,2.0,65,0.00,,,0.00,171,Wunderground v.1.15,2013-01-26 14:36:00,
2013-01-26 09:41:00,46.3,34.8,30.22,ESE,107,2.0,4.0,64,0.00,,,0.00,204,Wunderground v.1.15,2013-01-26 14:41:00,
2013-01-26 09:46:00,46.5,35.4,30.22,East,97,1.0,2.0,65,0.00,,,0.00,236,Wunderground v.1.15,2013-01-26 14:46:00,
2013-01-26 09:51:00,46.9,36.1,30.23,ENE,74,1.0,3.0,66,0.00,,,0.00,279,Wunderground v.1.15,2013-01-26 14:51:00,
2013-01-26 09:56:00,47.4,36.6,30.23,East,80,2.0,2.0,66,0.00,,,0.00,241,Wunderground v.1.15,2013-01-26 14:56:00,
2013-01-26 10:07:00,48.0,36.8,30.23,ESE,106,2.0,2.0,65,0.00,,,0.00,236,Wunderground v.1.15,2013-01-26 15:07:00,
2013-01-26 10:12:00,48.1,37.3,30.23,ENE,78,1.0,2.0,66,0.00,,,0.00,192,Wunderground v.1.15,2013-01-26 15:12:00,
2013-01-26 10:17:00,48.1,37.3,30.24,East,80,1.0,5.0,66,0.00,,,0.00,230,Wunderground v.1.15,2013-01-26 15:17:00,
2013-01-26 10:22:00,48.3,37.5,30.24,East,80,2.0,2.0,66,0.00,,,0.00,464,Wunderground v.1.15,2013-01-26 15:22:00,
2013-01-26 10:27:00,48.7,37.5,30.23,East,98,5.0,5.0,65,0.00,,,0.00,350,Wunderground v.1.15,2013-01-26 15:27:00,
2013-01-26 10:32:00,49.0,37.7,30.23,East,100,2.0,5.0,65,0.00,,,0.00,454,Wunderground v.1.15,2013-01-26 15:32:00,
2013-01-26 10:37:00,49.3,38.0,30.23,East,93,2.0,5.0,65,0.00,,,0.00,276,Wunderground v.1.15,2013-01-26 15:37:00,
2013-01-26 10:42:00,49.6,38.7,30.23,ENE,70,2.0,3.0,66,0.00,,,0.00,378,Wunderground v.1.15,2013-01-26 15:42:00,
2013-01-26 10:47:00,50.4,39.1,30.23,ESE,116,2.0,4.0,65,0.00,,,0.00,589,Wunderground v.1.15,2013-01-26 15:47:00,
2013-01-26 10:52:00,50.9,39.1,30.23,East,98,2.0,3.0,64,0.00,,,0.00,643,Wunderground v.1.15,2013-01-26 15:52:00,
2013-01-26 10:57:00,51.5,39.7,30.23,East,84,2.0,3.0,64,0.00,,,0.00,559,Wunderground v.1.15,2013-01-26 15:57:00,
2013-01-26 11:06:00,52.6,40.8,30.23,SE,128,2.0,3.0,64,0.00,,,0.00,596,Wunderground v.1.15,2013-01-26 16:06:00,
2013-01-26 11:11:00,53.2,40.9,30.23,ESE,122,1.0,4.0,63,0.00,,,0.00,563,Wunderground v.1.15,2013-01-26 16:11:00,
2013-01-26 11:16:00,53.5,41.2,30.22,ESE,115,0.0,4.0,63,0.00,,,0.00,459,Wunderground v.1.15,2013-01-26 16:16:00,
2013-01-26 11:21:00,53.8,41.5,30.22,ESE,109,2.0,5.0,63,0.00,,,0.00,445,Wunderground v.1.15,2013-01-26 16:21:00,
2013-01-26 11:27:00,53.8,41.5,30.22,NE,50,0.0,5.0,63,0.00,,,0.00,536,Wunderground v.1.15,2013-01-26 16:27:00,
2013-01-26 11:32:00,54.1,41.8,30.22,East,86,3.0,6.0,63,0.00,,,0.00,439,Wunderground v.1.15,2013-01-26 16:32:00,
2013-01-26 11:37:00,54.2,41.9,30.22,East,82,5.0,6.0,63,0.00,,,0.00,494,Wunderground v.1.15,2013-01-26 16:37:00,
2013-01-26 11:42:00,54.1,42.2,30.22,East,90,5.0,5.0,64,0.00,,,0.00,466,Wunderground v.1.15,2013-01-26 16:42:00,
2013-01-26 11:47:00,54.1,42.2,30.22,East,94,2.0,5.0,64,0.00,,,0.00,387,Wunderground v.1.15,2013-01-26 16:47:00,
2013-01-26 11:52:00,54.1,41.8,30.22,ENE,65,1.0,7.0,63,0.00,,,0.00,439,Wunderground v.1.15,2013-01-26 16:52:00,
2013-01-26 11:57:00,54.0,42.1,30.22,ENE,77,3.0,7.0,64,0.00,,,0.00,420,Wunderground v.1.15,2013-01-26 16:57:00,
2013-01-26 12:07:00,54.1,42.2,30.22,East,82,2.0,3.0,64,0.00,,,0.00,503,Wunderground v.1.15,2013-01-26 17:07:00,
2013-01-26 12:12:00,54.4,42.1,30.21,ENE,71,0.0,3.0,63,0.00,,,0.00,527,Wunderground v.1.15,2013-01-26 17:12:00,
2013-01-26 12:17:00,54.6,42.7,30.21,ENE,73,2.0,6.0,64,0.00,,,0.00,330,Wunderground v.1.15,2013-01-26 17:17:00,
2013-01-26 12:22:00,54.7,42.3,30.21,ENE,74,2.0,3.0,63,0.00,,,0.00,462,Wunderground v.1.15,2013-01-26 17:22:00,
2013-01-26 12:27:00,55.1,42.7,30.20,ESE,104,0.0,4.0,63,0.00,,,0.00,515,Wunderground v.1.15,2013-01-26 17:27:00,
2013-01-26 12:32:00,55.3,42.9,30.20,ENE,63,2.0,2.0,63,0.00,,,0.00,178,Wunderground v.1.15,2013-01-26 17:32:00,
2013-01-26 12:37:00,55.3,42.9,30.20,ESE,102,0.0,3.0,63,0.00,,,0.00,209,Wunderground v.1.15,2013-01-26 17:37:00,
2013-01-26 12:42:00,55.2,42.8,30.20,East,84,1.0,2.0,63,0.00,,,0.00,248,Wunderground v.1.15,2013-01-26 17:42:00,
2013-01-26 12:47:00,55.4,43.0,30.20,SE,124,4.0,4.0,63,0.00,,,0.00,497,Wunderground v.1.15,2013-01-26 17:47:00,
2013-01-26 12:52:00,55.7,43.7,30.19,ESE,111,1.0,2.0,64,0.00,,,0.00,415,Wunderground v.1.15,2013-01-26 17:52:00,
2013-01-26 12:57:00,56.2,44.2,30.19,ESE,119,0.0,2.0,64,0.00,,,0.00,624,Wunderground v.1.15,2013-01-26 17:57:00,
2013-01-26 13:07:00,57.2,44.3,30.19,SSE,156,1.0,4.0,62,0.00,,,0.00,526,Wunderground v.1.15,2013-01-26 18:07:00,
2013-01-26 13:12:00,57.6,44.7,30.19,SE,140,3.0,3.0,62,0.00,,,0.00,680,Wunderground v.1.15,2013-01-26 18:12:00,
2013-01-26 13:17:00,57.9,44.5,30.19,SE,136,1.0,4.0,61,0.00,,,0.00,482,Wunderground v.1.15,2013-01-26 18:17:00,
2013-01-26 13:22:00,58.1,44.3,30.19,South,187,5.0,5.0,60,0.00,,,0.00,503,Wunderground v.1.15,2013-01-26 18:22:00,
2013-01-26 13:27:00,58.1,43.8,30.19,South,186,1.0,8.0,59,0.00,,,0.00,907,Wunderground v.1.15,2013-01-26 18:27:00,
2013-01-26 13:32:00,58.3,44.0,30.19,ESE,119,2.0,5.0,59,0.00,,,0.00,364,Wunderground v.1.15,2013-01-26 18:32:00,
2013-01-26 13:37:00,57.9,43.2,30.19,East,92,2.0,5.0,58,0.00,,,0.00,336,Wunderground v.1.15,2013-01-26 18:37:00,
2013-01-26 13:42:00,57.3,42.6,30.19,SE,138,2.0,4.0,58,0.00,,,0.00,330,Wunderground v.1.15,2013-01-26 18:42:00,
2013-01-26 13:47:00,57.3,42.2,30.18,SE,136,1.0,5.0,57,0.00,,,0.00,392,Wunderground v.1.15,2013-01-26 18:47:00,
2013-01-26 13:52:00,56.9,41.8,30.19,East,93,3.0,6.0,57,0.00,,,0.00,283,Wunderground v.1.15,2013-01-26 18:52:00,
2013-01-26 13:57:00,56.4,41.3,30.19,SE,130,3.0,6.0,57,0.00,,,0.00,371,Wunderground v.1.15,2013-01-26 18:57:00,
2013-01-26 14:06:00,56.5,41.0,30.19,East,83,6.0,6.0,56,0.00,,,0.00,628,Wunderground v.1.15,2013-01-26 19:06:00,
2013-01-26 14:11:00,56.7,41.6,30.19,East,94,2.0,6.0,57,0.00,,,0.00,673,Wunderground v.1.15,2013-01-26 19:11:00,
2013-01-26 14:16:00,57.0,41.4,30.19,SE,141,2.0,9.0,56,0.00,,,0.00,656,Wunderground v.1.15,2013-01-26 19:16:00,
2013-01-26 14:21:00,57.2,41.6,30.19,SSE,167,1.0,4.0,56,0.00,,,0.00,622,Wunderground v.1.15,2013-01-26 19:21:00,
2013-01-26 14:26:00,57.8,41.7,30.19,ESE,103,0.0,4.0,55,0.00,,,0.00,617,Wunderground v.1.15,2013-01-26 19:26:00,
2013-01-26 14:31:00,58.0,41.4,30.19,ESE,107,2.0,2.0,54,0.00,,,0.00,334,Wunderground v.1.15,2013-01-26 19:31:00,
2013-01-26 14:36:00,58.0,41.4,30.19,ESE,120,2.0,5.0,54,0.00,,,0.00,485,Wunderground v.1.15,2013-01-26 19:36:00,
2013-01-26 14:41:00,57.8,41.3,30.19,East,97,1.0,2.0,54,0.00,,,0.00,434,Wunderground v.1.15,2013-01-26 19:41:00,
2013-01-26 14:46:00,58.0,41.4,30.19,ENE,72,1.0,4.0,54,0.00,,,0.00,376,Wunderground v.1.15,2013-01-26 19:46:00,
2013-01-26 14:51:00,58.4,41.8,30.19,ESE,109,3.0,3.0,54,0.00,,,0.00,221,Wunderground v.1.15,2013-01-26 19:51:00,
2013-01-26 14:56:00,58.5,41.4,30.19,ESE,113,0.0,4.0,53,0.00,,,0.00,594,Wunderground v.1.15,2013-01-26 19:56:00,
2013-01-26 15:07:00,58.5,41.4,30.19,NNE,27,2.0,2.0,53,0.00,,,0.00,292,Wunderground v.1.15,2013-01-26 20:07:00,
2013-01-26 15:12:00,58.6,41.5,30.19,NE,55,0.0,2.0,53,0.00,,,0.00,253,Wunderground v.1.15,2013-01-26 20:12:00,
2013-01-26 15:17:00,58.7,41.6,30.19,NE,55,0.0,2.0,53,0.00,,,0.00,283,Wunderground v.1.15,2013-01-26 20:17:00,
2013-01-26 15:22:00,59.0,41.9,30.19,WNW,303,2.0,3.0,53,0.00,,,0.00,359,Wunderground v.1.15,2013-01-26 20:22:00,
2013-01-26 15:27:00,58.7,45.7,30.19,NW,309,0.0,5.0,62,0.00,,,0.00,323,Wunderground v.1.15,2013-01-26 20:27:00,
2013-01-26 15:32:00,58.6,45.6,30.19,WNW,295,6.0,6.0,62,0.00,,,0.00,323,Wunderground v.1.15,2013-01-26 20:32:00,
2013-01-26 15:37:00,57.7,45.6,30.19,ESE,109,0.0,6.0,64,0.00,,,0.00,322,Wunderground v.1.15,2013-01-26 20:37:00,
2013-01-26 15:42:00,57.6,45.9,30.19,WNW,287,3.0,3.0,65,0.00,,,0.00,533,Wunderground v.1.15,2013-01-26 20:42:00,
2013-01-26 15:47:00,57.9,46.2,30.20,NW,306,3.0,3.0,65,0.00,,,0.00,204,Wunderground v.1.15,2013-01-26 20:47:00,
2013-01-26 15:52:00,57.7,45.6,30.20,NW,319,1.0,4.0,64,0.00,,,0.00,251,Wunderground v.1.15,2013-01-26 20:52:00,
2013-01-26 15:57:00,57.6,45.9,30.20,SSE,168,1.0,4.0,65,0.00,,,0.00,316,Wunderground v.1.15,2013-01-26 20:57:00,
2013-01-26 16:06:00,57.7,45.6,30.20,West,262,5.0,5.0,64,0.00,,,0.00,174,Wunderground v.1.15,2013-01-26 21:06:00,
2013-01-26 16:11:00,57.3,45.6,30.20,WNW,292,2.0,3.0,65,0.00,,,0.00,125,Wunderground v.1.15,2013-01-26 21:11:00,
2013-01-26 16:16:00,57.2,45.5,30.21,SW,225,1.0,5.0,65,0.00,,,0.00,100,Wunderground v.1.15,2013-01-26 21:16:00,
2013-01-26 16:21:00,56.9,45.3,30.21,WNW,300,1.0,1.0,65,0.00,,,0.00,84,Wunderground v.1.15,2013-01-26 21:21:00,
2013-01-26 16:26:00,56.7,45.1,30.21,SW,221,0.0,3.0,65,0.00,,,0.00,91,Wunderground v.1.15,2013-01-26 21:26:00,
2013-01-26 16:31:00,56.2,45.0,30.21,NW,310,0.0,1.0,66,0.00,,,0.00,81,Wunderground v.1.15,2013-01-26 21:31:00,
2013-01-26 16:36:00,55.8,44.6,30.21,West,266,0.0,3.0,66,0.00,,,0.00,77,Wunderground v.1.15,2013-01-26 21:36:00,
2013-01-26 16:41:00,55.6,44.8,30.21,West,281,0.0,1.0,67,0.00,,,0.00,74,Wunderground v.1.15,2013-01-26 21:41:00,
2013-01-26 16:46:00,55.3,44.5,30.21,NW,311,1.0,4.0,67,0.00,,,0.00,65,Wunderground v.1.15,2013-01-26 21:46:00,
2013-01-26 16:51:00,55.0,44.6,30.22,North,355,2.0,2.0,68,0.00,,,0.00,49,Wunderground v.1.15,2013-01-26 21:51:00,
2013-01-26 16:56:00,54.7,44.7,30.22,WNW,296,4.0,4.0,69,0.00,,,0.00,47,Wunderground v.1.15,2013-01-26 21:56:00,
2013-01-26 17:06:00,54.1,44.2,30.23,WNW,286,0.0,1.0,69,0.00,,,0.00,40,Wunderground v.1.15,2013-01-26 22:06:00,
2013-01-26 17:11:00,53.8,44.2,30.23,South,169,1.0,2.0,70,0.00,,,0.00,35,Wunderground v.1.15,2013-01-26 22:11:00,
2013-01-26 17:16:00,53.5,44.3,30.23,SSE,153,0.0,2.0,71,0.00,,,0.00,21,Wunderground v.1.15,2013-01-26 22:16:00,
2013-01-26 17:21:00,53.1,44.3,30.23,SSE,153,1.0,2.0,72,0.00,,,0.00,19,Wunderground v.1.15,2013-01-26 22:21:00,
2013-01-26 17:26:00,52.8,44.0,30.24,SSE,153,0.0,2.0,72,0.00,,,0.00,18,Wunderground v.1.15,2013-01-26 22:26:00,
2013-01-26 17:31:00,52.6,44.2,30.24,SSE,153,2.0,2.0,73,0.00,,,0.00,12,Wunderground v.1.15,2013-01-26 22:31:00,
2013-01-26 17:36:00,52.2,44.2,30.24,SSE,163,1.0,2.0,74,0.00,,,0.00,9,Wunderground v.1.15,2013-01-26 22:36:00,
2013-01-26 17:41:00,51.8,44.1,30.24,SSE,165,1.0,2.0,75,0.00,,,0.00,5,Wunderground v.1.15,2013-01-26 22:41:00,
2013-01-26 17:46:00,51.5,43.8,30.24,SSW,209,0.0,3.0,75,0.00,,,0.00,0,Wunderground v.1.15,2013-01-26 22:46:00,
2013-01-26 17:51:00,51.1,43.8,30.24,South,171,0.0,2.0,76,0.00,,,0.00,0,Wunderground v.1.15,2013-01-26 22:51:00,
2013-01-26 17:56:00,50.8,43.8,30.25,SSW,194,0.0,3.0,77,0.00,,,0.00,0,Wunderground v.1.15,2013-01-26 22:56:00,
2013-01-26 18:06:00,50.3,43.7,30.25,SSW,192,1.0,1.0,78,0.00,,,0.00,0,Wunderground v.1.15,2013-01-26 23:06:00,
2013-01-26 18:11:00,50.0,43.4,30.25,SSW,192,0.0,2.0,78,0.00,,,0.00,0,Wunderground v.1.15,2013-01-26 23:11:00,
2013-01-26 18:16:00,49.9,43.3,30.25,SSW,192,1.0,2.0,78,0.00,,,0.00,0,Wunderground v.1.15,2013-01-26 23:16:00,
2013-01-26 18:21:00,49.7,43.1,30.25,SSW,192,2.0,3.0,78,0.00,,,0.00,0,Wunderground v.1.15,2013-01-26 23:21:00,
2013-01-26 18:26:00,49.4,42.8,30.25,SSW,192,0.0,3.0,78,0.00,,,0.00,0,Wunderground v.1.15,2013-01-26 23:26:00,
2013-01-26 18:31:00,49.2,43.0,30.26,SSW,192,0.0,1.0,79,0.00,,,0.00,0,Wunderground v.1.15,2013-01-26 23:31:00,
2013-01-26 18:36:00,49.1,42.9,30.25,SSW,192,0.0,2.0,79,0.00,,,0.00,0,Wunderground v.1.15,2013-01-26 23:36:00,
2013-01-26 18:41:00,48.9,42.7,30.26,SSW,192,0.0,2.0,79,0.00,,,0.00,0,Wunderground v.1.15,2013-01-26 23:41:00,
2013-01-26 18:46:00,48.8,42.6,30.26,SSW,192,0.0,2.0,79,0.00,,,0.00,0,Wunderground v.1.15,2013-01-26 23:46:00,
2013-01-26 18:51:00,48.6,42.4,30.26,SSW,192,1.0,1.0,79,0.00,,,0.00,0,Wunderground v.1.15,2013-01-26 23:51:00,
2013-01-26 18:57:00,48.5,42.6,30.26,SSW,192,0.0,1.0,80,0.00,,,0.00,0,Wunderground v.1.15,2013-01-26 23:57:00,
2013-01-26 19:06:00,48.2,42.6,30.27,SSW,192,0.0,0.0,81,0.00,,,0.00,0,Wunderground v.1.15,2013-01-27 00:06:00,
2013-01-26 19:11:00,48.1,42.5,30.27,SSW,192,0.0,1.0,81,0.00,,,0.00,0,Wunderground v.1.15,2013-01-27 00:11:00,
2013-01-26 19:16:00,48.0,42.4,30.27,SSW,192,0.0,1.0,81,0.00,,,0.00,0,Wunderground v.1.15,2013-01-27 00:16:00,
2013-01-26 19:21:00,47.9,42.3,30.27,South,173,0.0,2.0,81,0.00,,,0.00,0,Wunderground v.1.15,2013-01-27 00:21:00,
2013-01-26 19:26:00,48.0,42.4,30.27,South,173,1.0,2.0,81,0.00,,,0.00,0,Wunderground v.1.15,2013-01-27 00:26:00,
2013-01-26 19:31:00,48.1,42.5,30.27,South,171,0.0,2.0,81,0.00,,,0.00,0,Wunderground v.1.15,2013-01-27 00:31:00,
2013-01-26 19:36:00,48.0,42.4,30.27,South,170,0.0,2.0,81,0.00,,,0.00,0,Wunderground v.1.15,2013-01-27 00:36:00,
2013-01-26 19:42:00,48.0,42.4,30.28,SE,145,2.0,2.0,81,0.00,,,0.00,0,Wunderground v.1.15,2013-01-27 00:42:00,
2013-01-26 19:47:00,47.9,42.3,30.28,SSE,158,0.0,2.0,81,0.00,,,0.00,0,Wunderground v.1.15,2013-01-27 00:47:00,
2013-01-26 19:52:00,47.9,42.3,30.28,SSE,158,1.0,1.0,81,0.00,,,0.00,0,Wunderground v.1.15,2013-01-27 00:52:00,
2013-01-26 19:57:00,47.9,42.3,30.28,SSE,165,0.0,3.0,81,0.00,,,0.00,0,Wunderground v.1.15,2013-01-27 00:57:00,
2013-01-26 20:07:00,47.8,42.3,30.29,SSE,165,1.0,3.0,81,0.00,,,0.00,0,Wunderground v.1.15,2013-01-27 01:07:00,
2013-01-26 20:12:00,47.7,42.2,30.29,SSE,151,1.0,4.0,81,0.00,,,0.00,0,Wunderground v.1.15,2013-01-27 01:12:00,
2013-01-26 20:17:00,47.5,42.3,30.29,SSE,153,2.0,4.0,82,0.00,,,0.00,0,Wunderground v.1.15,2013-01-27 01:17:00,
2013-01-26 20:22:00,47.4,42.2,30.29,SSE,164,3.0,3.0,82,0.00,,,0.00,0,Wunderground v.1.15,2013-01-27 01:22:00,
2013-01-26 20:27:00,47.2,42.3,30.29,SSE,159,0.0,5.0,83,0.00,,,0.00,0,Wunderground v.1.15,2013-01-27 01:27:00,
2013-01-26 20:32:00,47.1,42.2,30.29,SSE,166,0.0,2.0,83,0.00,,,0.00,0,Wunderground v.1.15,2013-01-27 01:32:00,
2013-01-26 20:37:00,46.9,42.0,30.29,SSE,158,2.0,3.0,83,0.00,,,0.00,0,Wunderground v.1.15,2013-01-27 01:37:00,
2013-01-26 20:42:00,46.7,41.8,30.30,SSE,157,1.0,3.0,83,0.00,,,0.00,0,Wunderground v.1.15,2013-01-27 01:42:00,
2013-01-26 20:47:00,46.7,41.8,30.30,SSE,147,2.0,4.0,83,0.00,,,0.00,0,Wunderground v.1.15,2013-01-27 01:47:00,
2013-01-26 20:52:00,46.5,41.9,30.30,SSE,160,2.0,3.0,84,0.00,,,0.00,0,Wunderground v.1.15,2013-01-27 01:52:00,
2013-01-26 20:57:00,46.4,41.8,30.30,SSE,165,0.0,4.0,84,0.00,,,0.00,0,Wunderground v.1.15,2013-01-27 01:57:00,
2013-01-26 21:08:00,46.1,41.5,30.30,South,170,2.0,4.0,84,0.00,,,0.00,0,Wunderground v.1.15,2013-01-27 02:08:00,
2013-01-26 21:13:00,46.0,41.4,30.30,SSW,198,0.0,4.0,84,0.00,,,0.00,0,Wunderground v.1.15,2013-01-27 02:13:00,
2013-01-26 21:18:00,45.9,41.3,30.30,SSE,164,1.0,4.0,84,0.00,,,0.00,0,Wunderground v.1.15,2013-01-27 02:18:00,
2013-01-26 21:23:00,45.9,41.3,30.31,SSE,157,2.0,4.0,84,0.00,,,0.00,0,Wunderground v.1.15,2013-01-27 02:23:00,
2013-01-26 21:28:00,45.9,41.0,30.30,South,176,2.0,5.0,83,0.00,,,0.00,0,Wunderground v.1.15,2013-01-27 02:28:00,
2013-01-26 21:33:00,46.0,41.1,30.30,SSE,161,1.0,4.0,83,0.00,,,0.00,0,Wunderground v.1.15,2013-01-27 02:33:00,
2013-01-26 21:38:00,46.0,41.1,30.31,South,177,2.0,7.0,83,0.00,,,0.00,0,Wunderground v.1.15,2013-01-27 02:38:00,
2013-01-26 21:43:00,46.0,40.8,30.31,South,177,1.0,5.0,82,0.00,,,0.00,0,Wunderground v.1.15,2013-01-27 02:43:00,
2013-01-26 21:48:00,46.1,40.9,30.31,SSE,166,0.0,5.0,82,0.00,,,0.00,0,Wunderground v.1.15,2013-01-27 02:48:00,
2013-01-26 21:53:00,46.1,40.6,30.31,SSE,156,3.0,7.0,81,0.00,,,0.00,0,Wunderground v.1.15,2013-01-27 02:53:00,
2013-01-26 21:58:00,46.2,40.7,30.31,SW,219,2.0,7.0,81,0.00,,,0.00,0,Wunderground v.1.15,2013-01-27 02:58:00,
2013-01-26 22:06:00,46.1,40.3,30.32,SSE,160,1.0,2.0,80,0.00,,,0.00,0,Wunderground v.1.15,2013-01-27 03:06:00,
2013-01-26 22:11:00,46.2,40.0,30.32,SE,146,4.0,4.0,79,0.00,,,0.00,0,Wunderground v.1.15,2013-01-27 03:11:00,
2013-01-26 22:16:00,46.2,39.7,30.32,South,183,1.0,4.0,78,0.00,,,0.00,0,Wunderground v.1.15,2013-01-27 03:16:00,
2013-01-26 22:21:00,46.3,39.8,30.32,SSE,157,2.0,4.0,78,0.00,,,0.00,0,Wunderground v.1.15,2013-01-27 03:21:00,
2013-01-26 22:26:00,46.3,39.5,30.32,SSE,154,2.0,5.0,77,0.00,,,0.00,0,Wunderground v.1.15,2013-01-27 03:26:00,
2013-01-26 22:31:00,46.3,39.5,30.33,South,175,3.0,5.0,77,0.00,,,0.00,0,Wunderground v.1.15,2013-01-27 03:31:00,
2013-01-26 22:36:00,46.3,39.5,30.33,SSW,202,1.0,5.0,77,0.00,,,0.00,0,Wunderground v.1.15,2013-01-27 03:36:00,
2013-01-26 22:41:00,46.2,39.4,30.33,SSE,162,1.0,4.0,77,0.00,,,0.00,0,Wunderground v.1.15,2013-01-27 03:41:00,
2013-01-26 22:46:00,46.1,39.3,30.33,SSW,196,1.0,5.0,77,0.00,,,0.00,0,Wunderground v.1.15,2013-01-27 03:46:00,
2013-01-26 22:51:00,46.0,39.2,30.33,South,173,2.0,3.0,77,0.00,,,0.00,0,Wunderground v.1.15,2013-01-27 03:51:00,
2013-01-26 22:56:00,45.9,39.1,30.32,SSW,195,1.0,4.0,77,0.00,,,0.00,0,Wunderground v.1.15,2013-01-27 03:56:00,
2013-01-26 23:06:00,45.6,38.8,30.33,South,169,2.0,2.0,77,0.00,,,0.00,0,Wunderground v.1.15,2013-01-27 04:06:00,
2013-01-26 23:11:00,45.5,38.7,30.33,SE,136,2.0,5.0,77,0.00,,,0.00,0,Wunderground v.1.15,2013-01-27 04:11:00,
2013-01-26 23:16:00,45.2,38.4,30.33,South,184,2.0,5.0,77,0.00,,,0.00,0,Wunderground v.1.15,2013-01-27 04:16:00,
2013-01-26 23:21:00,45.0,38.2,30.33,SSE,168,2.0,2.0,77,0.00,,,0.00,0,Wunderground v.1.15,2013-01-27 04:21:00,
2013-01-26 23:26:00,44.7,37.9,30.33,South,172,0.0,4.0,77,0.00,,,0.00,0,Wunderground v.1.15,2013-01-27 04:26:00,
2013-01-26 23:31:00,44.5,37.7,30.33,SSE,152,2.0,3.0,77,0.00,,,0.00,0,Wunderground v.1.15,2013-01-27 04:31:00,
2013-01-26 23:37:00,44.3,37.5,30.34,South,169,2.0,3.0,77,0.00,,,0.00,0,Wunderground v.1.15,2013-01-27 04:37:00,
2013-01-26 23:42:00,44.2,37.8,30.33,South,187,1.0,3.0,78,0.00,,,0.00,0,Wunderground v.1.15,2013-01-27 04:42:00,
2013-01-26 23:47:00,44.0,37.6,30.33,SE,144,1.0,4.0,78,0.00,,,0.00,0,Wunderground v.1.15,2013-01-27 04:47:00,
2013-01-26 23:52:00,43.8,37.7,30.34,SSE,167,1.0,3.0,79,0.00,,,0.00,0,Wunderground v.1.15,2013-01-27 04:52:00,
2013-01-26 23:57:00,43.8,37.7,30.33,South,176,1.0,6.0,79,0.00,,,0.00,0,Wunderground v.1.15,2013-01-27 04:57:00,